createdAt,value
2018-06-17T00:00:44.400Z,89.20
2018-06-17T00:03:13.072Z,91.30
2018-06-17T00:05:42.356Z,91.10
2018-06-17T00:08:10.984Z,90.40
2018-06-17T00:10:39.559Z,92.30
2018-06-17T00:13:08.189Z,92.80
2018-06-17T00:15:36.955Z,92.20
2018-06-17T00:18:05.568Z,93.10
2018-06-17T00:20:34.176Z,93.00
2018-06-17T00:23:02.770Z,91.80
2018-06-17T00:25:31.355Z,93.20
2018-06-17T00:28:00.069Z,93.20
2018-06-17T00:30:29.405Z,93.90
2018-06-17T00:32:58.016Z,92.80
2018-06-17T00:35:26.736Z,94.60
2018-06-17T00:37:55.509Z,92.50
2018-06-17T00:40:24.083Z,92.90
2018-06-17T00:42:52.652Z,93.30
2018-06-17T00:45:21.280Z,92.70
2018-06-17T00:47:49.852Z,92.60
2018-06-17T00:50:18.463Z,92.60
2018-06-17T00:52:47.097Z,92.50
2018-06-17T00:55:15.697Z,93.30
2018-06-17T00:57:51.942Z,92.70
2018-06-17T01:00:22.920Z,92.60
2018-06-17T01:02:51.492Z,93.00
2018-06-17T01:05:20.096Z,93.20
2018-06-17T01:07:48.682Z,93.00
2018-06-17T01:10:17.320Z,93.60
2018-06-17T01:12:46.212Z,93.20
2018-06-17T01:15:14.917Z,93.10
2018-06-17T01:17:43.607Z,93.30
2018-06-17T01:20:12.196Z,95.80
2018-06-17T01:22:40.820Z,97.00
2018-06-17T01:25:09.431Z,96.40
2018-06-17T01:27:38.010Z,95.90
2018-06-17T01:30:06.640Z,95.20
2018-06-17T01:32:35.216Z,95.20
2018-06-17T01:35:04.096Z,94.30
2018-06-17T01:37:32.679Z,95.60
2018-06-17T01:40:02.140Z,95.10
2018-06-17T01:42:30.738Z,95.00
2018-06-17T01:44:59.321Z,95.20
2018-06-17T01:47:27.968Z,95.20
2018-06-17T01:49:56.612Z,95.10
2018-06-17T01:52:25.203Z,94.90
2018-06-17T01:54:53.845Z,95.10
2018-06-17T01:57:23.163Z,94.70
2018-06-17T01:59:51.736Z,95.50
2018-06-17T02:02:21.095Z,94.60
2018-06-17T02:04:54.886Z,94.70
2018-06-17T02:07:28.894Z,95.10
2018-06-17T02:10:02.716Z,95.00
2018-06-17T02:12:31.328Z,95.20
2018-06-17T02:15:00.300Z,94.30
2018-06-17T02:17:29.260Z,96.10
2018-06-17T02:19:57.828Z,94.80
2018-06-17T02:22:26.404Z,94.80
2018-06-17T02:24:55.642Z,94.70
2018-06-17T02:27:24.239Z,95.00
2018-06-17T02:29:52.804Z,95.20
2018-06-17T02:32:21.412Z,93.80
2018-06-17T02:34:49.998Z,94.60
2018-06-17T02:37:19.020Z,94.20
2018-06-17T02:39:47.628Z,93.90
2018-06-17T02:42:16.228Z,94.60
2018-06-17T02:44:45.861Z,95.70
2018-06-17T02:47:19.578Z,93.30
2018-06-17T02:49:48.928Z,95.70
2018-06-17T02:52:22.784Z,92.70
2018-06-17T02:54:51.496Z,91.70
2018-06-17T02:57:20.773Z,93.40
2018-06-17T02:59:49.376Z,92.50
2018-06-17T03:02:17.989Z,92.30
2018-06-17T03:04:46.567Z,93.70
2018-06-17T03:07:15.140Z,93.60
2018-06-17T03:12:11.961Z,92.30
2018-06-17T03:14:40.596Z,94.90
2018-06-17T03:17:09.246Z,93.40
2018-06-17T03:19:37.857Z,93.60
2018-06-17T03:22:06.500Z,93.20
2018-06-17T03:24:40.351Z,93.80
2018-06-17T03:27:14.181Z,93.70
2018-06-17T03:29:47.931Z,94.90
2018-06-17T03:32:21.968Z,93.30
2018-06-17T03:34:55.791Z,94.60
2018-06-17T03:37:24.416Z,94.50
2018-06-17T03:39:53.131Z,95.90
2018-06-17T03:42:21.724Z,96.40
2018-06-17T03:44:50.312Z,96.60
2018-06-17T03:47:18.911Z,96.80
2018-06-17T03:49:47.561Z,96.50
2018-06-17T03:52:16.148Z,97.10
2018-06-17T03:54:44.734Z,98.70
2018-06-17T03:57:13.752Z,98.90
2018-06-17T03:59:42.341Z,98.80
2018-06-17T04:02:10.940Z,99.90
2018-06-17T04:04:44.901Z,98.80
2018-06-17T04:07:13.513Z,99.70
2018-06-17T04:09:42.113Z,99.20
2018-06-17T04:12:10.728Z,98.40
2018-06-17T04:14:40.072Z,98.80
2018-06-17T04:17:13.524Z,99.00
2018-06-17T04:19:43.116Z,97.60
2018-06-17T04:22:12.079Z,98.70
2018-06-17T04:24:40.693Z,99.30
2018-06-17T04:27:10.328Z,98.60
2018-06-17T04:29:38.901Z,98.20
2018-06-17T04:34:35.845Z,97.60
2018-06-17T04:37:04.450Z,98.20
2018-06-17T04:39:33.044Z,98.40
2018-06-17T04:42:01.649Z,98.40
2018-06-17T04:44:30.256Z,99.10
2018-06-17T04:46:58.979Z,99.30
2018-06-17T04:49:27.700Z,99.20
2018-06-17T04:51:56.544Z,99.90
2018-06-17T04:54:25.144Z,99.90
2018-06-17T04:56:54.196Z,99.90
2018-06-17T04:59:22.783Z,99.90
2018-06-17T05:01:51.367Z,99.90
2018-06-17T05:04:19.947Z,99.90
2018-06-17T05:06:48.572Z,99.90
2018-06-17T05:09:17.267Z,99.90
2018-06-17T05:11:46.347Z,99.90
2018-06-17T05:14:15.058Z,99.90
2018-06-17T05:16:43.652Z,99.90
2018-06-17T05:19:12.257Z,99.90
2018-06-17T05:21:40.869Z,99.90
2018-06-17T05:24:09.683Z,99.90
2018-06-17T05:26:38.380Z,99.90
2018-06-17T05:29:07.636Z,99.50
2018-06-17T05:31:36.212Z,99.90
2018-06-17T05:34:05.004Z,98.40
2018-06-17T05:36:34.052Z,98.40
2018-06-17T05:39:02.891Z,99.00
2018-06-17T05:41:31.459Z,97.60
2018-06-17T05:44:00.044Z,97.90
2018-06-17T05:51:25.942Z,96.50
2018-06-17T05:53:54.829Z,95.60
2018-06-17T05:56:23.412Z,94.50
2018-06-17T05:58:52.698Z,94.80
2018-06-17T06:01:21.483Z,93.10
2018-06-17T06:03:50.476Z,92.80
2018-06-17T06:06:19.226Z,91.30
2018-06-17T06:08:47.811Z,91.50
2018-06-17T06:11:16.461Z,90.80
2018-06-17T06:13:45.028Z,89.90
2018-06-17T06:16:13.621Z,87.70
2018-06-17T13:39:33.665Z,65.50
2018-06-17T13:42:02.855Z,64.70
2018-06-17T13:44:32.126Z,64.50
2018-06-17T13:47:01.480Z,64.70
2018-06-17T13:49:30.777Z,65.80
2018-06-17T13:51:59.905Z,67.60
2018-06-17T13:54:29.244Z,67.80
2018-06-17T13:56:58.288Z,66.90
2018-06-17T13:59:27.537Z,67.00
2018-06-17T14:01:56.777Z,67.20
2018-06-17T14:04:31.504Z,67.70
2018-06-17T14:07:01.156Z,67.30
2018-06-17T14:09:30.414Z,67.10
2018-06-17T14:12:00.635Z,66.70
2018-06-17T14:14:30.114Z,66.70
2018-06-17T14:16:59.303Z,66.50
2018-06-17T14:19:28.496Z,66.40
2018-06-17T14:21:57.995Z,66.30
2018-06-17T14:24:27.165Z,67.00
2018-06-17T14:26:56.257Z,67.20
2018-06-17T14:29:25.571Z,67.10
2018-06-17T14:31:55.105Z,67.50
2018-06-17T14:34:24.382Z,67.60
2018-06-17T14:36:53.574Z,68.10
2018-06-17T14:39:23.010Z,68.70
2018-06-17T14:41:57.691Z,68.90
2018-06-17T14:44:32.081Z,68.20
2018-06-17T14:47:06.555Z,68.50
2018-06-17T14:49:41.008Z,68.20
2018-06-17T14:52:15.497Z,68.40
2018-06-17T14:54:44.792Z,68.50
2018-06-17T14:57:14.043Z,69.50
2018-06-17T14:59:43.375Z,69.70
2018-06-17T15:02:12.646Z,70.20
2018-06-17T15:04:42.073Z,69.70
2018-06-17T15:07:11.545Z,69.30
2018-06-17T15:09:40.991Z,69.30
2018-06-17T15:12:10.145Z,70.00
2018-06-17T15:14:39.669Z,69.30
2018-06-17T15:17:09.243Z,69.80
2018-06-17T15:19:38.723Z,66.60
2018-06-17T15:22:07.983Z,68.70
2018-06-17T15:24:37.305Z,68.30
2018-06-17T15:27:06.661Z,67.90
2018-06-17T15:29:36.040Z,68.90
2018-06-17T15:32:10.446Z,69.00
2018-06-17T15:34:45.186Z,69.10
2018-06-17T15:37:19.836Z,69.20
2018-06-17T15:39:53.311Z,69.70
2018-06-17T15:42:22.600Z,69.60
2018-06-17T15:44:51.856Z,70.10
2018-06-17T15:47:21.214Z,71.10
2018-06-17T15:49:50.590Z,71.30
2018-06-17T15:52:19.971Z,73.10
2018-06-17T15:54:49.350Z,73.40
2018-06-17T15:57:18.983Z,73.90
2018-06-17T15:59:48.361Z,76.50
2018-06-17T16:02:17.773Z,77.40
2018-06-17T16:04:47.007Z,78.10
2018-06-17T16:07:16.249Z,78.40
2018-06-17T16:09:45.863Z,78.10
2018-06-17T16:12:20.275Z,79.80
2018-06-17T16:14:54.873Z,80.30
2018-06-17T16:17:29.433Z,82.90
2018-06-17T16:20:03.801Z,83.00
2018-06-17T16:22:33.117Z,82.70
2018-06-17T16:25:02.474Z,82.10
2018-06-17T16:27:31.795Z,84.00
2018-06-17T16:30:01.123Z,85.70
2018-06-17T16:32:30.428Z,86.50
2018-06-17T16:34:59.993Z,87.90
2018-06-17T16:37:29.436Z,89.20
2018-06-17T16:39:58.867Z,90.50
2018-06-17T16:42:28.373Z,90.50
2018-06-17T16:44:58.090Z,90.80
2018-06-17T16:47:27.456Z,91.30
2018-06-17T16:49:57.117Z,91.60
2018-06-17T16:52:31.691Z,91.00
2018-06-17T16:55:04.362Z,91.60
2018-06-17T16:57:38.708Z,91.70
2018-06-17T17:00:21.753Z,91.80
2018-06-17T17:02:51.182Z,92.00
2018-06-17T17:05:20.445Z,91.70
2018-06-17T17:07:50.424Z,91.70
2018-06-17T17:10:19.887Z,93.30
2018-06-17T17:12:49.146Z,94.20
2018-06-17T17:15:18.474Z,93.60
2018-06-17T17:17:47.806Z,93.60
2018-06-17T17:20:17.319Z,93.80
2018-06-17T17:22:46.769Z,95.30
2018-06-17T17:25:16.774Z,96.10
2018-06-17T17:27:46.551Z,95.00
2018-06-17T17:30:16.297Z,96.00
2018-06-17T17:32:50.772Z,96.70
2018-06-17T17:35:26.721Z,97.70
2018-06-17T17:39:00.507Z,97.90
2018-06-17T17:41:30.138Z,96.90
2018-06-17T17:44:02.384Z,96.90
2018-06-17T17:46:37.141Z,98.60
2018-06-17T17:49:08.158Z,97.60
2018-06-17T17:51:40.296Z,97.10
2018-06-17T17:54:10.143Z,98.10
2018-06-17T17:56:43.203Z,97.90
2018-06-17T17:59:13.591Z,98.10
2018-06-17T18:01:43.165Z,99.50
2018-06-17T18:04:14.243Z,98.10
2018-06-17T18:06:44.936Z,98.40
2018-06-17T18:09:14.704Z,98.80
2018-06-17T18:11:44.650Z,98.20
2018-06-17T18:14:14.029Z,98.30
2018-06-17T18:16:43.695Z,97.80
2018-06-17T18:19:16.261Z,98.20
2018-06-17T18:21:46.155Z,99.40
2018-06-17T18:24:15.844Z,98.70
2018-06-17T18:26:50.158Z,98.60
2018-06-17T18:29:25.117Z,97.10
2018-06-17T18:31:59.448Z,98.90
2018-06-17T18:34:34.200Z,98.70
2018-06-17T18:37:03.634Z,98.00
2018-06-17T18:39:33.696Z,98.90
2018-06-17T18:42:03.167Z,99.10
2018-06-17T18:44:32.515Z,98.30
2018-06-17T18:49:33.470Z,99.00
2018-06-17T18:52:02.865Z,99.90
2018-06-17T18:54:32.188Z,99.70
2018-06-17T18:57:01.676Z,99.60
2018-06-17T18:59:31.335Z,99.10
2018-06-17T19:02:00.638Z,98.30
2018-06-17T19:04:30.106Z,98.60
2018-06-17T19:06:59.491Z,98.00
2018-06-17T19:12:07.973Z,99.90
2018-06-17T19:14:42.338Z,99.90
2018-06-17T19:19:45.784Z,99.90
2018-06-17T19:22:15.307Z,99.90
2018-06-17T19:24:44.711Z,99.90
2018-06-17T19:27:14.154Z,99.90
2018-06-17T19:29:43.687Z,99.90
2018-06-17T19:32:13.099Z,99.90
2018-06-17T19:34:42.583Z,99.90
2018-06-17T19:37:12.197Z,99.90
2018-06-17T19:39:41.802Z,99.90
2018-06-17T19:42:11.268Z,99.90
2018-06-17T19:44:40.614Z,99.90
2018-06-17T19:47:10.013Z,99.90
2018-06-17T19:49:44.410Z,99.90
2018-06-17T19:52:18.750Z,99.90
2018-06-17T19:54:54.025Z,99.90
2018-06-17T19:57:28.609Z,99.90
2018-06-17T20:00:03.173Z,99.90
2018-06-17T20:02:32.916Z,99.90
2018-06-17T20:05:02.314Z,99.90
2018-06-17T20:07:32.002Z,99.90
2018-06-17T20:10:01.825Z,99.90
2018-06-17T20:12:31.838Z,99.90
2018-06-17T20:15:02.812Z,99.90
2018-06-17T20:17:33.432Z,99.90
2018-06-17T20:20:04.191Z,99.90
2018-06-17T20:22:39.614Z,99.90
2018-06-17T20:25:09.392Z,99.90
2018-06-17T20:27:41.351Z,99.90
2018-06-17T20:30:12.660Z,99.90
2018-06-17T20:32:48.186Z,99.90
2018-06-17T20:35:25.406Z,99.90
2018-06-17T20:38:00.213Z,99.90
2018-06-17T20:40:35.399Z,99.90
2018-06-17T20:44:09.237Z,99.90
2018-06-17T20:46:39.254Z,99.90
2018-06-17T20:49:08.861Z,99.90
2018-06-17T20:51:39.883Z,99.90
2018-06-17T20:54:09.844Z,99.90
2018-06-17T20:56:39.992Z,99.90
2018-06-17T20:59:11.019Z,99.90
2018-06-17T21:01:40.797Z,99.90
2018-06-17T21:04:11.890Z,99.90
2018-06-17T21:06:42.533Z,99.90
2018-06-17T21:09:12.621Z,99.90
2018-06-17T21:11:42.448Z,99.90
2018-06-17T21:14:11.861Z,99.90
2018-06-17T21:16:41.496Z,99.90
2018-06-17T21:19:16.377Z,99.90
2018-06-17T21:21:50.825Z,99.90
2018-06-17T21:24:25.267Z,99.90
2018-06-17T21:26:59.711Z,99.90
2018-06-17T21:29:29.275Z,99.90
2018-06-17T21:31:58.726Z,99.90
2018-06-17T21:34:28.393Z,99.90
2018-06-17T21:39:27.437Z,99.90
2018-06-17T21:41:56.933Z,99.90
2018-06-17T21:44:26.472Z,99.90
2018-06-17T21:46:55.797Z,99.90
2018-06-17T21:49:26.557Z,99.90
2018-06-17T21:51:56.166Z,99.90
2018-06-17T21:54:25.727Z,99.90
2018-06-17T21:56:55.145Z,99.90
2018-06-17T21:59:25.264Z,99.90
2018-06-17T22:01:54.971Z,99.90
2018-06-17T22:04:29.404Z,99.90
2018-06-17T22:07:01.052Z,99.90
2018-06-17T22:09:35.750Z,99.90
2018-06-17T22:12:10.883Z,99.90
2018-06-17T22:14:46.730Z,99.90
2018-06-17T22:17:21.824Z,99.90
2018-06-17T22:19:52.693Z,99.90
2018-06-17T22:22:23.041Z,99.90
2018-06-17T22:24:52.993Z,99.90
2018-06-17T22:27:22.721Z,99.90
2018-06-17T22:29:53.544Z,99.90
2018-06-17T22:32:23.737Z,99.90
2018-06-17T22:34:53.222Z,99.90
2018-06-17T22:37:23.274Z,99.90
2018-06-17T22:39:54.055Z,99.90
2018-06-17T22:42:23.773Z,99.90
2018-06-17T22:44:53.981Z,99.90
2018-06-17T22:47:58.972Z,99.90
2018-06-17T22:50:28.743Z,99.90
2018-06-17T22:53:09.038Z,99.90
2018-06-17T22:55:39.116Z,99.90
2018-06-17T22:58:13.622Z,99.90
2018-06-17T23:00:48.289Z,99.90
2018-06-17T23:03:23.285Z,99.90
2018-06-17T23:05:57.883Z,99.90
2018-06-17T23:08:32.443Z,99.90
2018-06-17T23:11:06.015Z,99.90
2018-06-17T23:13:36.053Z,99.90
2018-06-17T23:16:05.513Z,99.90
2018-06-17T23:18:34.939Z,99.90
2018-06-17T23:21:04.208Z,99.90
2018-06-17T23:23:34.013Z,99.90
2018-06-17T23:26:03.419Z,99.90
2018-06-17T23:28:33.586Z,99.90
2018-06-17T23:31:04.136Z,99.90
2018-06-17T23:33:33.558Z,99.90
2018-06-17T23:36:03.857Z,99.90
2018-06-17T23:38:33.461Z,99.90
2018-06-17T23:41:03.220Z,99.90
2018-06-17T23:43:32.854Z,99.00
2018-06-17T23:46:10.690Z,98.90
2018-06-17T23:48:45.190Z,98.40
2018-06-17T23:51:19.776Z,98.00
2018-06-17T23:53:54.423Z,97.20
2018-06-17T23:56:24.164Z,98.00
2018-06-17T23:58:54.176Z,97.50
